sensor_id;sensor_type;location;lat;lon;timestamp;P1;durP1;ratioP1;P2;durP2;ratioP2
13445;SDS011;6795;51.232;3.764;2023-08-12T00:00:13;13.30;;;7.70;;
13445;SDS011;6795;51.232;3.764;2023-08-12T00:02:42;11.32;;;7.15;;
13445;SDS011;6795;51.232;3.764;2023-08-12T00:05:12;9.80;;;6.57;;
13445;SDS011;6795;51.232;3.764;2023-08-12T00:07:41;11.55;;;7.35;;
13445;SDS011;6795;51.232;3.764;2023-08-12T00:10:11;9.73;;;7.18;;
13445;SDS011;6795;51.232;3.764;2023-08-12T00:12:40;13.80;;;8.23;;
13445;SDS011;6795;51.232;3.764;2023-08-12T00:15:11;14.23;;;7.70;;
13445;SDS011;6795;51.232;3.764;2023-08-12T00:17:40;15.10;;;9.02;;
13445;SDS011;6795;51.232;3.764;2023-08-12T00:20:09;11.93;;;8.70;;
13445;SDS011;6795;51.232;3.764;2023-08-12T00:22:39;12.98;;;9.00;;
13445;SDS011;6795;51.232;3.764;2023-08-12T00:25:08;12.07;;;9.00;;
13445;SDS011;6795;51.232;3.764;2023-08-12T00:27:38;11.10;;;8.23;;
13445;SDS011;6795;51.232;3.764;2023-08-12T00:30:06;10.15;;;7.50;;
13445;SDS011;6795;51.232;3.764;2023-08-12T00:32:38;11.25;;;7.20;;
13445;SDS011;6795;51.232;3.764;2023-08-12T00:35:07;16.67;;;7.22;;
13445;SDS011;6795;51.232;3.764;2023-08-12T00:37:36;10.45;;;5.75;;
13445;SDS011;6795;51.232;3.764;2023-08-12T00:40:05;9.55;;;5.53;;
13445;SDS011;6795;51.232;3.764;2023-08-12T00:42:34;10.23;;;5.22;;
13445;SDS011;6795;51.232;3.764;2023-08-12T00:45:07;11.60;;;5.28;;
13445;SDS011;6795;51.232;3.764;2023-08-12T00:47:39;12.55;;;5.13;;
13445;SDS011;6795;51.232;3.764;2023-08-12T00:50:09;9.07;;;4.78;;
13445;SDS011;6795;51.232;3.764;2023-08-12T00:52:41;9.52;;;4.85;;
13445;SDS011;6795;51.232;3.764;2023-08-12T00:55:10;11.63;;;5.00;;
13445;SDS011;6795;51.232;3.764;2023-08-12T00:57:39;11.82;;;5.18;;
13445;SDS011;6795;51.232;3.764;2023-08-12T01:00:10;10.63;;;5.18;;
13445;SDS011;6795;51.232;3.764;2023-08-12T01:02:40;5.55;;;4.15;;
13445;SDS011;6795;51.232;3.764;2023-08-12T01:05:15;8.00;;;4.07;;
13445;SDS011;6795;51.232;3.764;2023-08-12T01:07:43;5.75;;;3.92;;
13445;SDS011;6795;51.232;3.764;2023-08-12T01:10:12;12.27;;;4.60;;
13445;SDS011;6795;51.232;3.764;2023-08-12T01:12:44;8.48;;;4.13;;
13445;SDS011;6795;51.232;3.764;2023-08-12T01:15:20;7.78;;;3.97;;
13445;SDS011;6795;51.232;3.764;2023-08-12T01:17:50;9.65;;;3.92;;
13445;SDS011;6795;51.232;3.764;2023-08-12T01:20:23;13.95;;;4.28;;
13445;SDS011;6795;51.232;3.764;2023-08-12T01:22:56;9.13;;;3.85;;
13445;SDS011;6795;51.232;3.764;2023-08-12T01:25:27;12.63;;;4.07;;
13445;SDS011;6795;51.232;3.764;2023-08-12T01:27:56;13.75;;;5.13;;
13445;SDS011;6795;51.232;3.764;2023-08-12T01:30:24;8.63;;;4.15;;
13445;SDS011;6795;51.232;3.764;2023-08-12T01:32:53;9.43;;;3.60;;
13445;SDS011;6795;51.232;3.764;2023-08-12T01:35:30;6.25;;;3.65;;
13445;SDS011;6795;51.232;3.764;2023-08-12T01:38:03;8.52;;;3.97;;
13445;SDS011;6795;51.232;3.764;2023-08-12T01:40:35;7.25;;;3.28;;
13445;SDS011;6795;51.232;3.764;2023-08-12T01:43:05;8.88;;;2.95;;
13445;SDS011;6795;51.232;3.764;2023-08-12T01:45:35;7.20;;;2.72;;
13445;SDS011;6795;51.232;3.764;2023-08-12T01:48:04;7.88;;;3.20;;
13445;SDS011;6795;51.232;3.764;2023-08-12T01:50:33;6.03;;;3.05;;
13445;SDS011;6795;51.232;3.764;2023-08-12T01:53:01;10.43;;;3.45;;
13445;SDS011;6795;51.232;3.764;2023-08-12T01:55:30;6.57;;;2.67;;
13445;SDS011;6795;51.232;3.764;2023-08-12T01:58:00;7.63;;;3.13;;
13445;SDS011;6795;51.232;3.764;2023-08-12T02:00:28;6.30;;;3.20;;
13445;SDS011;6795;51.232;3.764;2023-08-12T02:02:57;8.23;;;2.78;;
13445;SDS011;6795;51.232;3.764;2023-08-12T02:05:25;5.10;;;2.58;;
13445;SDS011;6795;51.232;3.764;2023-08-12T02:07:54;6.78;;;3.38;;
13445;SDS011;6795;51.232;3.764;2023-08-12T02:10:22;6.10;;;2.72;;
13445;SDS011;6795;51.232;3.764;2023-08-12T02:12:51;4.40;;;2.65;;
13445;SDS011;6795;51.232;3.764;2023-08-12T02:15:20;6.68;;;3.33;;
13445;SDS011;6795;51.232;3.764;2023-08-12T02:17:52;11.32;;;3.42;;
13445;SDS011;6795;51.232;3.764;2023-08-12T02:20:20;8.30;;;4.10;;
13445;SDS011;6795;51.232;3.764;2023-08-12T02:22:48;7.85;;;3.75;;
13445;SDS011;6795;51.232;3.764;2023-08-12T02:25:17;7.57;;;4.38;;
13445;SDS011;6795;51.232;3.764;2023-08-12T02:27:45;9.20;;;3.92;;
13445;SDS011;6795;51.232;3.764;2023-08-12T02:30:14;7.45;;;3.95;;
13445;SDS011;6795;51.232;3.764;2023-08-12T02:32:43;8.57;;;3.95;;
13445;SDS011;6795;51.232;3.764;2023-08-12T02:35:13;12.82;;;4.78;;
13445;SDS011;6795;51.232;3.764;2023-08-12T02:37:41;8.43;;;4.40;;
13445;SDS011;6795;51.232;3.764;2023-08-12T02:40:10;11.40;;;4.40;;
13445;SDS011;6795;51.232;3.764;2023-08-12T02:42:38;10.85;;;4.47;;
13445;SDS011;6795;51.232;3.764;2023-08-12T02:45:07;12.73;;;4.22;;
13445;SDS011;6795;51.232;3.764;2023-08-12T02:47:36;9.95;;;5.10;;
13445;SDS011;6795;51.232;3.764;2023-08-12T02:50:06;10.85;;;4.88;;
13445;SDS011;6795;51.232;3.764;2023-08-12T02:52:36;8.50;;;5.20;;
13445;SDS011;6795;51.232;3.764;2023-08-12T02:55:04;10.13;;;5.20;;
13445;SDS011;6795;51.232;3.764;2023-08-12T02:57:33;7.03;;;3.47;;
13445;SDS011;6795;51.232;3.764;2023-08-12T03:00:01;6.95;;;4.07;;
13445;SDS011;6795;51.232;3.764;2023-08-12T03:02:32;10.45;;;3.72;;
13445;SDS011;6795;51.232;3.764;2023-08-12T03:05:00;9.32;;;4.53;;
13445;SDS011;6795;51.232;3.764;2023-08-12T03:07:30;8.10;;;3.55;;
13445;SDS011;6795;51.232;3.764;2023-08-12T03:10:01;7.85;;;4.13;;
13445;SDS011;6795;51.232;3.764;2023-08-12T03:12:29;6.75;;;3.65;;
13445;SDS011;6795;51.232;3.764;2023-08-12T03:14:58;6.97;;;3.20;;
13445;SDS011;6795;51.232;3.764;2023-08-12T03:17:28;7.60;;;3.63;;
13445;SDS011;6795;51.232;3.764;2023-08-12T03:20:00;7.75;;;3.67;;
13445;SDS011;6795;51.232;3.764;2023-08-12T03:22:32;5.07;;;3.92;;
13445;SDS011;6795;51.232;3.764;2023-08-12T03:25:01;7.85;;;4.03;;
13445;SDS011;6795;51.232;3.764;2023-08-12T03:27:29;6.53;;;3.80;;
13445;SDS011;6795;51.232;3.764;2023-08-12T03:29:58;7.38;;;4.55;;
13445;SDS011;6795;51.232;3.764;2023-08-12T03:32:26;10.20;;;3.95;;
13445;SDS011;6795;51.232;3.764;2023-08-12T03:34:55;9.10;;;5.10;;
13445;SDS011;6795;51.232;3.764;2023-08-12T03:37:23;8.57;;;4.65;;
13445;SDS011;6795;51.232;3.764;2023-08-12T03:39:53;13.23;;;5.72;;
13445;SDS011;6795;51.232;3.764;2023-08-12T03:42:22;14.05;;;5.75;;
13445;SDS011;6795;51.232;3.764;2023-08-12T03:44:50;7.88;;;5.80;;
13445;SDS011;6795;51.232;3.764;2023-08-12T03:47:19;9.63;;;6.13;;
13445;SDS011;6795;51.232;3.764;2023-08-12T03:49:50;10.15;;;7.07;;
13445;SDS011;6795;51.232;3.764;2023-08-12T03:52:18;14.20;;;7.22;;
13445;SDS011;6795;51.232;3.764;2023-08-12T03:54:47;10.82;;;8.63;;
13445;SDS011;6795;51.232;3.764;2023-08-12T03:57:17;12.07;;;8.30;;
13445;SDS011;6795;51.232;3.764;2023-08-12T03:59:45;13.23;;;8.57;;
13445;SDS011;6795;51.232;3.764;2023-08-12T04:02:13;14.30;;;9.50;;
13445;SDS011;6795;51.232;3.764;2023-08-12T04:04:42;14.07;;;9.93;;
13445;SDS011;6795;51.232;3.764;2023-08-12T04:07:10;15.65;;;10.27;;
13445;SDS011;6795;51.232;3.764;2023-08-12T04:09:39;15.55;;;11.98;;
13445;SDS011;6795;51.232;3.764;2023-08-12T04:12:08;17.15;;;12.68;;
13445;SDS011;6795;51.232;3.764;2023-08-12T04:14:37;19.10;;;12.68;;
13445;SDS011;6795;51.232;3.764;2023-08-12T04:17:07;16.75;;;13.05;;
13445;SDS011;6795;51.232;3.764;2023-08-12T04:19:36;19.73;;;12.85;;
13445;SDS011;6795;51.232;3.764;2023-08-12T04:22:06;31.48;;;14.52;;
13445;SDS011;6795;51.232;3.764;2023-08-12T04:24:34;18.90;;;13.38;;
13445;SDS011;6795;51.232;3.764;2023-08-12T04:27:02;20.17;;;12.77;;
13445;SDS011;6795;51.232;3.764;2023-08-12T04:29:31;18.02;;;12.68;;
13445;SDS011;6795;51.232;3.764;2023-08-12T04:32:01;13.07;;;10.88;;
13445;SDS011;6795;51.232;3.764;2023-08-12T04:34:29;13.57;;;10.65;;
13445;SDS011;6795;51.232;3.764;2023-08-12T04:36:58;13.32;;;11.05;;
13445;SDS011;6795;51.232;3.764;2023-08-12T04:39:26;14.05;;;10.70;;
13445;SDS011;6795;51.232;3.764;2023-08-12T04:41:55;14.70;;;11.48;;
13445;SDS011;6795;51.232;3.764;2023-08-12T04:44:23;13.13;;;9.80;;
13445;SDS011;6795;51.232;3.764;2023-08-12T04:46:51;12.85;;;9.50;;
13445;SDS011;6795;51.232;3.764;2023-08-12T04:49:21;10.57;;;8.90;;
13445;SDS011;6795;51.232;3.764;2023-08-12T04:51:51;11.88;;;7.53;;
13445;SDS011;6795;51.232;3.764;2023-08-12T04:54:19;7.78;;;6.95;;
13445;SDS011;6795;51.232;3.764;2023-08-12T04:56:48;7.93;;;7.13;;
13445;SDS011;6795;51.232;3.764;2023-08-12T04:59:16;8.82;;;7.18;;
13445;SDS011;6795;51.232;3.764;2023-08-12T05:01:44;8.75;;;7.07;;
13445;SDS011;6795;51.232;3.764;2023-08-12T05:04:31;7.50;;;6.20;;
13445;SDS011;6795;51.232;3.764;2023-08-12T05:07:00;6.95;;;6.43;;
13445;SDS011;6795;51.232;3.764;2023-08-12T05:09:28;5.53;;;5.03;;
13445;SDS011;6795;51.232;3.764;2023-08-12T05:11:57;5.03;;;4.63;;
13445;SDS011;6795;51.232;3.764;2023-08-12T05:14:25;5.45;;;4.95;;
13445;SDS011;6795;51.232;3.764;2023-08-12T05:16:53;5.60;;;4.90;;
13445;SDS011;6795;51.232;3.764;2023-08-12T05:19:22;5.10;;;4.60;;
13445;SDS011;6795;51.232;3.764;2023-08-12T05:21:52;4.15;;;3.85;;
13445;SDS011;6795;51.232;3.764;2023-08-12T05:24:20;4.05;;;3.83;;
13445;SDS011;6795;51.232;3.764;2023-08-12T05:26:49;4.80;;;4.50;;
13445;SDS011;6795;51.232;3.764;2023-08-12T05:29:17;5.18;;;4.78;;
13445;SDS011;6795;51.232;3.764;2023-08-12T05:31:46;4.97;;;4.68;;
13445;SDS011;6795;51.232;3.764;2023-08-12T05:34:14;5.45;;;4.95;;
13445;SDS011;6795;51.232;3.764;2023-08-12T05:36:43;6.15;;;5.75;;
13445;SDS011;6795;51.232;3.764;2023-08-12T05:39:12;6.75;;;6.15;;
13445;SDS011;6795;51.232;3.764;2023-08-12T05:41:41;5.95;;;5.45;;
13445;SDS011;6795;51.232;3.764;2023-08-12T05:44:10;5.13;;;4.65;;
13445;SDS011;6795;51.232;3.764;2023-08-12T05:46:38;4.70;;;2.80;;
13445;SDS011;6795;51.232;3.764;2023-08-12T05:49:07;4.65;;;1.42;;
13445;SDS011;6795;51.232;3.764;2023-08-12T05:51:35;7.68;;;1.45;;
13445;SDS011;6795;51.232;3.764;2023-08-12T05:54:04;5.57;;;1.77;;
13445;SDS011;6795;51.232;3.764;2023-08-12T05:56:34;7.22;;;1.60;;
13445;SDS011;6795;51.232;3.764;2023-08-12T05:59:03;7.55;;;1.52;;
13445;SDS011;6795;51.232;3.764;2023-08-12T06:01:34;2.38;;;1.55;;
13445;SDS011;6795;51.232;3.764;2023-08-12T06:04:02;3.05;;;1.00;;
13445;SDS011;6795;51.232;3.764;2023-08-12T06:06:31;6.57;;;1.52;;
13445;SDS011;6795;51.232;3.764;2023-08-12T06:08:59;5.88;;;1.05;;
13445;SDS011;6795;51.232;3.764;2023-08-12T06:11:28;4.55;;;0.60;;
13445;SDS011;6795;51.232;3.764;2023-08-12T06:13:58;3.20;;;0.70;;
13445;SDS011;6795;51.232;3.764;2023-08-12T06:16:26;4.93;;;0.93;;
13445;SDS011;6795;51.232;3.764;2023-08-12T06:18:54;6.57;;;1.42;;
13445;SDS011;6795;51.232;3.764;2023-08-12T06:21:23;6.45;;;0.82;;
13445;SDS011;6795;51.232;3.764;2023-08-12T06:23:51;7.45;;;0.60;;
13445;SDS011;6795;51.232;3.764;2023-08-12T06:26:22;7.28;;;0.90;;
13445;SDS011;6795;51.232;3.764;2023-08-12T06:28:50;3.17;;;0.50;;
13445;SDS011;6795;51.232;3.764;2023-08-12T06:31:20;6.47;;;1.23;;
13445;SDS011;6795;51.232;3.764;2023-08-12T06:33:49;5.65;;;1.02;;
13445;SDS011;6795;51.232;3.764;2023-08-12T06:36:17;2.90;;;0.77;;
13445;SDS011;6795;51.232;3.764;2023-08-12T06:38:45;6.00;;;0.80;;
13445;SDS011;6795;51.232;3.764;2023-08-12T06:41:14;5.22;;;0.50;;
13445;SDS011;6795;51.232;3.764;2023-08-12T06:43:42;4.32;;;0.82;;
13445;SDS011;6795;51.232;3.764;2023-08-12T06:46:11;6.40;;;0.82;;
13445;SDS011;6795;51.232;3.764;2023-08-12T06:48:41;5.82;;;0.70;;
13445;SDS011;6795;51.232;3.764;2023-08-12T06:51:09;7.00;;;0.98;;
13445;SDS011;6795;51.232;3.764;2023-08-12T06:53:38;5.05;;;1.17;;
13445;SDS011;6795;51.232;3.764;2023-08-12T06:56:07;3.00;;;0.60;;
13445;SDS011;6795;51.232;3.764;2023-08-12T06:58:35;2.20;;;0.52;;
13445;SDS011;6795;51.232;3.764;2023-08-12T07:01:04;6.22;;;1.08;;
13445;SDS011;6795;51.232;3.764;2023-08-12T07:03:32;3.97;;;1.10;;
13445;SDS011;6795;51.232;3.764;2023-08-12T07:06:02;8.93;;;0.90;;
13445;SDS011;6795;51.232;3.764;2023-08-12T07:08:30;6.95;;;0.80;;
13445;SDS011;6795;51.232;3.764;2023-08-12T07:10:59;4.53;;;0.70;;
13445;SDS011;6795;51.232;3.764;2023-08-12T07:13:28;5.07;;;0.95;;
13445;SDS011;6795;51.232;3.764;2023-08-12T07:15:56;7.50;;;0.90;;
13445;SDS011;6795;51.232;3.764;2023-08-12T07:18:25;5.80;;;1.27;;
13445;SDS011;6795;51.232;3.764;2023-08-12T07:20:53;7.55;;;1.00;;
13445;SDS011;6795;51.232;3.764;2023-08-12T07:23:24;7.40;;;1.58;;
13445;SDS011;6795;51.232;3.764;2023-08-12T07:25:53;4.68;;;1.23;;
13445;SDS011;6795;51.232;3.764;2023-08-12T07:28:22;4.70;;;0.93;;
13445;SDS011;6795;51.232;3.764;2023-08-12T07:30:50;5.22;;;1.05;;
13445;SDS011;6795;51.232;3.764;2023-08-12T07:33:19;5.18;;;1.33;;
13445;SDS011;6795;51.232;3.764;2023-08-12T07:35:48;4.22;;;1.13;;
13445;SDS011;6795;51.232;3.764;2023-08-12T07:38:16;4.47;;;1.30;;
13445;SDS011;6795;51.232;3.764;2023-08-12T07:40:47;7.22;;;1.95;;
13445;SDS011;6795;51.232;3.764;2023-08-12T07:43:16;4.78;;;1.83;;
13445;SDS011;6795;51.232;3.764;2023-08-12T07:45:50;3.05;;;1.85;;
13445;SDS011;6795;51.232;3.764;2023-08-12T07:48:35;6.97;;;2.00;;
13445;SDS011;6795;51.232;3.764;2023-08-12T07:51:04;6.78;;;2.72;;
13445;SDS011;6795;51.232;3.764;2023-08-12T07:53:36;3.67;;;1.80;;
13445;SDS011;6795;51.232;3.764;2023-08-12T07:56:05;4.50;;;2.00;;
13445;SDS011;6795;51.232;3.764;2023-08-12T07:58:35;3.05;;;1.60;;
13445;SDS011;6795;51.232;3.764;2023-08-12T08:01:03;3.80;;;1.50;;
13445;SDS011;6795;51.232;3.764;2023-08-12T08:03:32;3.17;;;1.48;;
13445;SDS011;6795;51.232;3.764;2023-08-12T08:06:03;2.42;;;1.20;;
13445;SDS011;6795;51.232;3.764;2023-08-12T08:08:31;5.97;;;1.48;;
13445;SDS011;6795;51.232;3.764;2023-08-12T08:11:00;6.30;;;1.38;;
13445;SDS011;6795;51.232;3.764;2023-08-12T08:13:30;4.15;;;1.33;;
13445;SDS011;6795;51.232;3.764;2023-08-12T08:15:58;4.25;;;1.25;;
13445;SDS011;6795;51.232;3.764;2023-08-12T08:18:27;4.85;;;1.02;;
13445;SDS011;6795;51.232;3.764;2023-08-12T08:20:55;3.35;;;1.33;;
13445;SDS011;6795;51.232;3.764;2023-08-12T08:23:32;5.85;;;2.08;;
13445;SDS011;6795;51.232;3.764;2023-08-12T08:26:03;4.90;;;1.40;;
13445;SDS011;6795;51.232;3.764;2023-08-12T08:28:32;3.10;;;1.50;;
13445;SDS011;6795;51.232;3.764;2023-08-12T08:31:01;5.22;;;1.73;;
13445;SDS011;6795;51.232;3.764;2023-08-12T08:33:29;5.70;;;2.22;;
13445;SDS011;6795;51.232;3.764;2023-08-12T08:35:58;6.75;;;2.72;;
13445;SDS011;6795;51.232;3.764;2023-08-12T08:38:26;3.95;;;2.40;;
13445;SDS011;6795;51.232;3.764;2023-08-12T08:40:55;4.63;;;2.95;;
13445;SDS011;6795;51.232;3.764;2023-08-12T08:43:25;5.55;;;3.47;;
13445;SDS011;6795;51.232;3.764;2023-08-12T08:45:56;4.07;;;3.40;;
13445;SDS011;6795;51.232;3.764;2023-08-12T08:48:26;8.25;;;4.30;;
13445;SDS011;6795;51.232;3.764;2023-08-12T08:50:54;4.90;;;4.40;;
13445;SDS011;6795;51.232;3.764;2023-08-12T08:53:25;8.15;;;4.43;;
13445;SDS011;6795;51.232;3.764;2023-08-12T08:55:54;7.07;;;4.68;;
13445;SDS011;6795;51.232;3.764;2023-08-12T08:58:27;12.65;;;6.07;;
13445;SDS011;6795;51.232;3.764;2023-08-12T09:00:57;15.25;;;5.93;;
13445;SDS011;6795;51.232;3.764;2023-08-12T09:03:26;5.95;;;5.30;;
13445;SDS011;6795;51.232;3.764;2023-08-12T09:05:55;11.55;;;5.85;;
13445;SDS011;6795;51.232;3.764;2023-08-12T09:08:24;6.32;;;5.43;;
13445;SDS011;6795;51.232;3.764;2023-08-12T09:10:55;6.43;;;4.85;;
13445;SDS011;6795;51.232;3.764;2023-08-12T09:13:27;6.32;;;3.67;;
13445;SDS011;6795;51.232;3.764;2023-08-12T09:15:58;5.60;;;3.63;;
13445;SDS011;6795;51.232;3.764;2023-08-12T09:18:29;6.47;;;2.65;;
13445;SDS011;6795;51.232;3.764;2023-08-12T09:20:57;6.93;;;2.70;;
13445;SDS011;6795;51.232;3.764;2023-08-12T09:23:26;5.55;;;2.00;;
13445;SDS011;6795;51.232;3.764;2023-08-12T09:25:55;6.13;;;2.28;;
13445;SDS011;6795;51.232;3.764;2023-08-12T09:28:24;6.55;;;2.25;;
13445;SDS011;6795;51.232;3.764;2023-08-12T09:30:53;12.70;;;2.90;;
13445;SDS011;6795;51.232;3.764;2023-08-12T09:33:25;9.30;;;2.95;;
13445;SDS011;6795;51.232;3.764;2023-08-12T09:35:54;10.52;;;3.17;;
13445;SDS011;6795;51.232;3.764;2023-08-12T09:38:24;5.57;;;2.63;;
13445;SDS011;6795;51.232;3.764;2023-08-12T09:40:54;4.65;;;2.28;;
13445;SDS011;6795;51.232;3.764;2023-08-12T09:43:23;5.60;;;2.25;;
13445;SDS011;6795;51.232;3.764;2023-08-12T09:45:55;8.90;;;2.10;;
13445;SDS011;6795;51.232;3.764;2023-08-12T09:48:26;4.55;;;1.80;;
13445;SDS011;6795;51.232;3.764;2023-08-12T09:50:54;16.20;;;2.22;;
13445;SDS011;6795;51.232;3.764;2023-08-12T09:53:22;5.75;;;1.88;;
13445;SDS011;6795;51.232;3.764;2023-08-12T09:55:51;2.47;;;1.48;;
13445;SDS011;6795;51.232;3.764;2023-08-12T09:58:21;4.30;;;1.67;;
13445;SDS011;6795;51.232;3.764;2023-08-12T10:00:52;5.60;;;2.05;;
13445;SDS011;6795;51.232;3.764;2023-08-12T10:03:20;7.15;;;1.42;;
13445;SDS011;6795;51.232;3.764;2023-08-12T10:05:51;4.88;;;1.73;;
13445;SDS011;6795;51.232;3.764;2023-08-12T10:08:20;11.75;;;1.88;;
13445;SDS011;6795;51.232;3.764;2023-08-12T10:10:49;7.32;;;1.40;;
13445;SDS011;6795;51.232;3.764;2023-08-12T10:13:37;5.00;;;1.27;;
13445;SDS011;6795;51.232;3.764;2023-08-12T10:16:06;5.63;;;1.10;;
13445;SDS011;6795;51.232;3.764;2023-08-12T10:18:36;11.98;;;1.30;;
13445;SDS011;6795;51.232;3.764;2023-08-12T10:21:09;5.28;;;1.30;;
13445;SDS011;6795;51.232;3.764;2023-08-12T10:23:40;3.45;;;0.70;;
13445;SDS011;6795;51.232;3.764;2023-08-12T10:26:13;2.13;;;0.73;;
13445;SDS011;6795;51.232;3.764;2023-08-12T10:28:43;5.78;;;1.20;;
13445;SDS011;6795;51.232;3.764;2023-08-12T10:31:11;5.32;;;1.05;;
13445;SDS011;6795;51.232;3.764;2023-08-12T10:33:40;4.07;;;0.80;;
13445;SDS011;6795;51.232;3.764;2023-08-12T10:36:10;4.28;;;0.93;;
13445;SDS011;6795;51.232;3.764;2023-08-12T10:38:40;5.47;;;1.08;;
13445;SDS011;6795;51.232;3.764;2023-08-12T10:41:18;3.03;;;0.90;;
13445;SDS011;6795;51.232;3.764;2023-08-12T10:43:53;4.47;;;0.88;;
13445;SDS011;6795;51.232;3.764;2023-08-12T10:46:28;1.83;;;0.98;;
13445;SDS011;6795;51.232;3.764;2023-08-12T10:48:58;5.95;;;0.70;;
13445;SDS011;6795;51.232;3.764;2023-08-12T10:51:40;7.70;;;1.20;;
13445;SDS011;6795;51.232;3.764;2023-08-12T10:54:15;2.58;;;0.60;;
13445;SDS011;6795;51.232;3.764;2023-08-12T10:59:46;4.45;;;0.70;;
13445;SDS011;6795;51.232;3.764;2023-08-12T11:02:20;4.55;;;0.90;;
13445;SDS011;6795;51.232;3.764;2023-08-12T11:05:00;4.68;;;0.75;;
13445;SDS011;6795;51.232;3.764;2023-08-12T11:07:37;2.20;;;0.60;;
13445;SDS011;6795;51.232;3.764;2023-08-12T11:10:10;6.72;;;1.20;;
13445;SDS011;6795;51.232;3.764;2023-08-12T11:12:41;3.80;;;0.57;;
13445;SDS011;6795;51.232;3.764;2023-08-12T11:15:10;3.13;;;0.70;;
13445;SDS011;6795;51.232;3.764;2023-08-12T11:17:39;6.38;;;0.80;;
13445;SDS011;6795;51.232;3.764;2023-08-12T11:20:09;6.80;;;0.75;;
13445;SDS011;6795;51.232;3.764;2023-08-12T11:22:41;4.53;;;0.80;;
13445;SDS011;6795;51.232;3.764;2023-08-12T11:25:11;3.15;;;0.60;;
13445;SDS011;6795;51.232;3.764;2023-08-12T11:27:43;5.57;;;0.65;;
13445;SDS011;6795;51.232;3.764;2023-08-12T11:30:14;8.55;;;0.73;;
13445;SDS011;6795;51.232;3.764;2023-08-12T11:32:45;4.13;;;0.75;;
13445;SDS011;6795;51.232;3.764;2023-08-12T11:35:15;4.40;;;0.70;;
13445;SDS011;6795;51.232;3.764;2023-08-12T11:37:45;3.80;;;0.75;;
13445;SDS011;6795;51.232;3.764;2023-08-12T11:40:16;3.95;;;0.50;;
13445;SDS011;6795;51.232;3.764;2023-08-12T11:42:45;4.63;;;0.80;;
13445;SDS011;6795;51.232;3.764;2023-08-12T11:45:15;6.32;;;0.98;;
13445;SDS011;6795;51.232;3.764;2023-08-12T11:47:45;4.22;;;0.60;;
13445;SDS011;6795;51.232;3.764;2023-08-12T11:50:20;2.45;;;0.73;;
13445;SDS011;6795;51.232;3.764;2023-08-12T11:52:51;3.60;;;0.63;;
13445;SDS011;6795;51.232;3.764;2023-08-12T11:55:20;6.80;;;0.80;;
13445;SDS011;6795;51.232;3.764;2023-08-12T11:57:50;7.63;;;0.95;;
13445;SDS011;6795;51.232;3.764;2023-08-12T12:00:19;2.03;;;0.77;;
13445;SDS011;6795;51.232;3.764;2023-08-12T12:02:51;3.30;;;0.70;;
13445;SDS011;6795;51.232;3.764;2023-08-12T12:05:22;6.50;;;0.57;;
13445;SDS011;6795;51.232;3.764;2023-08-12T12:07:53;4.82;;;1.05;;
13445;SDS011;6795;51.232;3.764;2023-08-12T12:10:26;3.00;;;0.88;;
13445;SDS011;6795;51.232;3.764;2023-08-12T12:13:00;5.68;;;0.88;;
13445;SDS011;6795;51.232;3.764;2023-08-12T12:15:29;5.25;;;0.88;;
13445;SDS011;6795;51.232;3.764;2023-08-12T12:17:58;3.85;;;1.20;;
13445;SDS011;6795;51.232;3.764;2023-08-12T12:20:27;2.33;;;0.77;;
13445;SDS011;6795;51.232;3.764;2023-08-12T12:22:57;4.95;;;0.70;;
13445;SDS011;6795;51.232;3.764;2023-08-12T12:25:34;2.88;;;0.60;;
13445;SDS011;6795;51.232;3.764;2023-08-12T12:28:02;5.10;;;0.70;;
13445;SDS011;6795;51.232;3.764;2023-08-12T12:30:31;3.88;;;0.85;;
13445;SDS011;6795;51.232;3.764;2023-08-12T12:33:00;3.20;;;0.60;;
13445;SDS011;6795;51.232;3.764;2023-08-12T12:35:30;5.57;;;0.77;;
13445;SDS011;6795;51.232;3.764;2023-08-12T12:38:14;5.93;;;0.95;;
13445;SDS011;6795;51.232;3.764;2023-08-12T12:40:42;3.40;;;0.98;;
13445;SDS011;6795;51.232;3.764;2023-08-12T12:43:11;6.25;;;0.82;;
13445;SDS011;6795;51.232;3.764;2023-08-12T12:45:39;3.75;;;0.82;;
13445;SDS011;6795;51.232;3.764;2023-08-12T12:48:08;3.33;;;0.85;;
13445;SDS011;6795;51.232;3.764;2023-08-12T12:50:36;2.72;;;0.70;;
13445;SDS011;6795;51.232;3.764;2023-08-12T12:53:05;3.00;;;0.73;;
13445;SDS011;6795;51.232;3.764;2023-08-12T12:55:34;6.78;;;0.77;;
13445;SDS011;6795;51.232;3.764;2023-08-12T12:58:03;3.65;;;0.85;;
13445;SDS011;6795;51.232;3.764;2023-08-12T13:00:32;2.85;;;0.70;;
13445;SDS011;6795;51.232;3.764;2023-08-12T13:03:00;5.85;;;0.93;;
13445;SDS011;6795;51.232;3.764;2023-08-12T13:05:29;2.03;;;0.85;;
13445;SDS011;6795;51.232;3.764;2023-08-12T13:07:57;3.28;;;0.70;;
13445;SDS011;6795;51.232;3.764;2023-08-12T13:10:26;4.82;;;0.98;;
13445;SDS011;6795;51.232;3.764;2023-08-12T13:12:56;4.85;;;0.95;;
13445;SDS011;6795;51.232;3.764;2023-08-12T13:15:24;3.75;;;1.02;;
13445;SDS011;6795;51.232;3.764;2023-08-12T13:17:54;3.38;;;0.88;;
13445;SDS011;6795;51.232;3.764;2023-08-12T13:20:23;7.70;;;1.10;;
13445;SDS011;6795;51.232;3.764;2023-08-12T13:22:51;5.85;;;1.00;;
13445;SDS011;6795;51.232;3.764;2023-08-12T13:25:19;7.50;;;1.63;;
13445;SDS011;6795;51.232;3.764;2023-08-12T13:27:48;6.72;;;1.15;;
13445;SDS011;6795;51.232;3.764;2023-08-12T13:30:18;5.30;;;0.88;;
13445;SDS011;6795;51.232;3.764;2023-08-12T13:32:47;4.43;;;0.90;;
13445;SDS011;6795;51.232;3.764;2023-08-12T13:35:16;4.95;;;0.95;;
13445;SDS011;6795;51.232;3.764;2023-08-12T13:37:44;8.18;;;1.35;;
13445;SDS011;6795;51.232;3.764;2023-08-12T13:40:14;7.60;;;0.98;;
13445;SDS011;6795;51.232;3.764;2023-08-12T13:42:42;6.78;;;1.00;;
13445;SDS011;6795;51.232;3.764;2023-08-12T13:45:12;6.43;;;1.08;;
13445;SDS011;6795;51.232;3.764;2023-08-12T13:47:42;5.85;;;1.30;;
13445;SDS011;6795;51.232;3.764;2023-08-12T13:50:11;3.67;;;0.70;;
13445;SDS011;6795;51.232;3.764;2023-08-12T13:52:40;3.58;;;0.88;;
13445;SDS011;6795;51.232;3.764;2023-08-12T13:55:08;6.57;;;1.35;;
13445;SDS011;6795;51.232;3.764;2023-08-12T13:57:40;2.97;;;0.80;;
13445;SDS011;6795;51.232;3.764;2023-08-12T14:00:11;5.95;;;0.90;;
13445;SDS011;6795;51.232;3.764;2023-08-12T14:02:40;8.35;;;1.10;;
13445;SDS011;6795;51.232;3.764;2023-08-12T14:05:10;2.72;;;0.80;;
13445;SDS011;6795;51.232;3.764;2023-08-12T14:07:39;4.03;;;0.80;;
13445;SDS011;6795;51.232;3.764;2023-08-12T14:10:08;3.67;;;1.13;;
13445;SDS011;6795;51.232;3.764;2023-08-12T14:12:37;3.60;;;0.95;;
13445;SDS011;6795;51.232;3.764;2023-08-12T14:15:06;2.75;;;0.60;;
13445;SDS011;6795;51.232;3.764;2023-08-12T14:17:35;4.43;;;0.90;;
13445;SDS011;6795;51.232;3.764;2023-08-12T14:20:06;4.95;;;0.90;;
13445;SDS011;6795;51.232;3.764;2023-08-12T14:22:35;4.07;;;0.85;;
13445;SDS011;6795;51.232;3.764;2023-08-12T14:25:04;4.40;;;0.85;;
13445;SDS011;6795;51.232;3.764;2023-08-12T14:27:33;5.88;;;0.80;;
13445;SDS011;6795;51.232;3.764;2023-08-12T14:30:02;3.78;;;0.60;;
13445;SDS011;6795;51.232;3.764;2023-08-12T14:32:31;2.72;;;0.70;;
13445;SDS011;6795;51.232;3.764;2023-08-12T14:34:59;7.43;;;2.30;;
13445;SDS011;6795;51.232;3.764;2023-08-12T14:37:30;4.32;;;1.45;;
13445;SDS011;6795;51.232;3.764;2023-08-12T14:39:58;3.22;;;0.90;;
13445;SDS011;6795;51.232;3.764;2023-08-12T14:42:27;11.50;;;1.80;;
13445;SDS011;6795;51.232;3.764;2023-08-12T14:44:56;5.57;;;1.00;;
13445;SDS011;6795;51.232;3.764;2023-08-12T14:47:24;4.28;;;1.35;;
13445;SDS011;6795;51.232;3.764;2023-08-12T14:49:53;7.07;;;1.77;;
13445;SDS011;6795;51.232;3.764;2023-08-12T14:52:22;3.05;;;0.70;;
13445;SDS011;6795;51.232;3.764;2023-08-12T14:54:52;7.80;;;1.00;;
13445;SDS011;6795;51.232;3.764;2023-08-12T14:57:20;3.72;;;0.90;;
13445;SDS011;6795;51.232;3.764;2023-08-12T14:59:48;8.52;;;1.17;;
13445;SDS011;6795;51.232;3.764;2023-08-12T15:02:19;6.25;;;1.55;;
13445;SDS011;6795;51.232;3.764;2023-08-12T15:04:49;5.70;;;0.55;;
13445;SDS011;6795;51.232;3.764;2023-08-12T15:07:18;3.13;;;0.60;;
13445;SDS011;6795;51.232;3.764;2023-08-12T15:09:48;6.82;;;1.02;;
13445;SDS011;6795;51.232;3.764;2023-08-12T15:12:19;4.05;;;0.73;;
13445;SDS011;6795;51.232;3.764;2023-08-12T15:14:48;4.90;;;0.63;;